sensor_id;sensor_type;location;lat;lon;timestamp;temperature;humidity
13346;DHT22;6742;48.036;15.780;2022-08-05T00:01:30;21.40;99.90
13346;DHT22;6742;48.036;15.780;2022-08-05T00:03:57;21.30;99.90
13346;DHT22;6742;48.036;15.780;2022-08-05T00:06:24;21.30;99.90
13346;DHT22;6742;48.036;15.780;2022-08-05T00:08:51;21.30;99.90
13346;DHT22;6742;48.036;15.780;2022-08-05T00:11:18;21.30;99.90
13346;DHT22;6742;48.036;15.780;2022-08-05T00:13:48;21.30;99.90
13346;DHT22;6742;48.036;15.780;2022-08-05T00:16:15;21.30;99.90
13346;DHT22;6742;48.036;15.780;2022-08-05T00:18:47;21.40;99.90
13346;DHT22;6742;48.036;15.780;2022-08-05T00:21:15;21.30;99.90
13346;DHT22;6742;48.036;15.780;2022-08-05T00:23:46;21.20;99.90
13346;DHT22;6742;48.036;15.780;2022-08-05T00:26:14;21.20;99.90
13346;DHT22;6742;48.036;15.780;2022-08-05T00:28:41;21.20;99.90
13346;DHT22;6742;48.036;15.780;2022-08-05T00:31:08;21.20;99.90
13346;DHT22;6742;48.036;15.780;2022-08-05T00:33:35;21.20;99.90
13346;DHT22;6742;48.036;15.780;2022-08-05T00:36:04;21.10;99.90
13346;DHT22;6742;48.036;15.780;2022-08-05T00:38:31;21.00;99.90
13346;DHT22;6742;48.036;15.780;2022-08-05T00:40:58;21.00;99.90
13346;DHT22;6742;48.036;15.780;2022-08-05T00:43:26;20.90;99.90
13346;DHT22;6742;48.036;15.780;2022-08-05T00:45:53;20.90;99.90
13346;DHT22;6742;48.036;15.780;2022-08-05T00:48:24;20.90;99.90
13346;DHT22;6742;48.036;15.780;2022-08-05T00:50:52;20.90;99.90
13346;DHT22;6742;48.036;15.780;2022-08-05T00:53:21;20.80;99.90
13346;DHT22;6742;48.036;15.780;2022-08-05T00:55:48;20.80;99.90
13346;DHT22;6742;48.036;15.780;2022-08-05T00:58:16;20.80;99.90
13346;DHT22;6742;48.036;15.780;2022-08-05T01:00:44;20.80;99.90
13346;DHT22;6742;48.036;15.780;2022-08-05T01:03:12;20.80;99.90
13346;DHT22;6742;48.036;15.780;2022-08-05T01:05:39;20.80;99.90
13346;DHT22;6742;48.036;15.780;2022-08-05T01:08:06;20.70;99.90
13346;DHT22;6742;48.036;15.780;2022-08-05T01:10:40;20.70;99.90
13346;DHT22;6742;48.036;15.780;2022-08-05T01:13:15;20.70;99.90
13346;DHT22;6742;48.036;15.780;2022-08-05T01:15:51;20.70;99.90
13346;DHT22;6742;48.036;15.780;2022-08-05T01:18:24;20.60;99.90
13346;DHT22;6742;48.036;15.780;2022-08-05T01:21:00;20.60;99.90
13346;DHT22;6742;48.036;15.780;2022-08-05T01:23:42;20.70;99.90
13346;DHT22;6742;48.036;15.780;2022-08-05T01:26:20;20.60;99.90
13346;DHT22;6742;48.036;15.780;2022-08-05T01:28:57;20.50;99.90
13346;DHT22;6742;48.036;15.780;2022-08-05T01:31:28;20.50;99.90
13346;DHT22;6742;48.036;15.780;2022-08-05T01:34:03;20.40;99.90
13346;DHT22;6742;48.036;15.780;2022-08-05T01:36:35;20.40;99.90
13346;DHT22;6742;48.036;15.780;2022-08-05T01:39:03;20.40;99.90
13346;DHT22;6742;48.036;15.780;2022-08-05T01:41:33;20.40;99.90
13346;DHT22;6742;48.036;15.780;2022-08-05T01:44:03;20.40;99.90
13346;DHT22;6742;48.036;15.780;2022-08-05T01:46:33;20.40;99.90
13346;DHT22;6742;48.036;15.780;2022-08-05T01:49:02;20.40;99.90
13346;DHT22;6742;48.036;15.780;2022-08-05T01:51:30;20.40;99.90
13346;DHT22;6742;48.036;15.780;2022-08-05T01:54:00;20.30;99.90
13346;DHT22;6742;48.036;15.780;2022-08-05T01:56:30;20.30;99.90
13346;DHT22;6742;48.036;15.780;2022-08-05T01:58:58;20.30;99.90
13346;DHT22;6742;48.036;15.780;2022-08-05T02:01:29;20.30;99.90
13346;DHT22;6742;48.036;15.780;2022-08-05T02:03:59;20.20;99.90
13346;DHT22;6742;48.036;15.780;2022-08-05T02:06:27;20.30;99.90
13346;DHT22;6742;48.036;15.780;2022-08-05T02:08:54;20.20;99.90
13346;DHT22;6742;48.036;15.780;2022-08-05T02:11:22;20.20;99.90
13346;DHT22;6742;48.036;15.780;2022-08-05T02:13:53;20.20;99.90
13346;DHT22;6742;48.036;15.780;2022-08-05T02:16:24;20.20;99.90
13346;DHT22;6742;48.036;15.780;2022-08-05T02:18:57;20.20;99.90
13346;DHT22;6742;48.036;15.780;2022-08-05T02:21:29;20.10;99.90
13346;DHT22;6742;48.036;15.780;2022-08-05T02:24:03;20.00;99.90
13346;DHT22;6742;48.036;15.780;2022-08-05T02:26:35;20.00;99.90
13346;DHT22;6742;48.036;15.780;2022-08-05T02:29:05;20.00;99.90
13346;DHT22;6742;48.036;15.780;2022-08-05T02:31:34;20.10;99.90
13346;DHT22;6742;48.036;15.780;2022-08-05T02:34:06;20.10;99.90
13346;DHT22;6742;48.036;15.780;2022-08-05T02:36:35;20.10;99.90
13346;DHT22;6742;48.036;15.780;2022-08-05T02:39:06;20.10;99.90
13346;DHT22;6742;48.036;15.780;2022-08-05T02:41:34;20.10;99.90
13346;DHT22;6742;48.036;15.780;2022-08-05T02:44:02;20.10;99.90
13346;DHT22;6742;48.036;15.780;2022-08-05T02:46:32;20.00;99.90
13346;DHT22;6742;48.036;15.780;2022-08-05T02:48:59;20.10;99.90
13346;DHT22;6742;48.036;15.780;2022-08-05T02:51:29;20.10;99.90
13346;DHT22;6742;48.036;15.780;2022-08-05T02:53:57;20.20;99.90
13346;DHT22;6742;48.036;15.780;2022-08-05T02:56:24;20.20;99.90
13346;DHT22;6742;48.036;15.780;2022-08-05T02:58:56;20.00;99.90
13346;DHT22;6742;48.036;15.780;2022-08-05T03:01:25;20.00;99.90
13346;DHT22;6742;48.036;15.780;2022-08-05T03:03:54;19.90;99.90
13346;DHT22;6742;48.036;15.780;2022-08-05T03:06:22;19.90;99.90
13346;DHT22;6742;48.036;15.780;2022-08-05T03:08:51;19.90;99.90
13346;DHT22;6742;48.036;15.780;2022-08-05T03:11:19;19.90;99.90
13346;DHT22;6742;48.036;15.780;2022-08-05T03:13:50;19.80;99.90
13346;DHT22;6742;48.036;15.780;2022-08-05T03:16:21;19.80;99.90
13346;DHT22;6742;48.036;15.780;2022-08-05T03:18:48;19.70;99.90
13346;DHT22;6742;48.036;15.780;2022-08-05T03:21:15;19.80;99.90
13346;DHT22;6742;48.036;15.780;2022-08-05T03:23:43;19.80;99.90
13346;DHT22;6742;48.036;15.780;2022-08-05T03:26:12;19.80;99.90
13346;DHT22;6742;48.036;15.780;2022-08-05T03:28:39;19.70;99.90
13346;DHT22;6742;48.036;15.780;2022-08-05T03:31:07;19.70;99.90
13346;DHT22;6742;48.036;15.780;2022-08-05T03:33:34;19.70;99.90
13346;DHT22;6742;48.036;15.780;2022-08-05T03:36:01;19.60;99.90
13346;DHT22;6742;48.036;15.780;2022-08-05T03:38:29;19.60;99.90
13346;DHT22;6742;48.036;15.780;2022-08-05T03:40:56;19.50;99.90
13346;DHT22;6742;48.036;15.780;2022-08-05T03:43:24;19.50;99.90
13346;DHT22;6742;48.036;15.780;2022-08-05T03:45:52;19.60;99.90
13346;DHT22;6742;48.036;15.780;2022-08-05T04:01:07;19.50;99.90
13346;DHT22;6742;48.036;15.780;2022-08-05T04:11:22;19.60;99.90
13346;DHT22;6742;48.036;15.780;2022-08-05T04:13:50;19.60;99.90
13346;DHT22;6742;48.036;15.780;2022-08-05T04:16:18;19.60;99.90
13346;DHT22;6742;48.036;15.780;2022-08-05T04:18:46;19.60;99.90
13346;DHT22;6742;48.036;15.780;2022-08-05T04:21:13;19.50;99.90
13346;DHT22;6742;48.036;15.780;2022-08-05T04:23:43;19.50;99.90
13346;DHT22;6742;48.036;15.780;2022-08-05T04:26:22;19.50;99.90
13346;DHT22;6742;48.036;15.780;2022-08-05T04:28:49;19.50;99.90
13346;DHT22;6742;48.036;15.780;2022-08-05T04:31:16;19.50;99.90
13346;DHT22;6742;48.036;15.780;2022-08-05T04:33:43;19.40;99.90
13346;DHT22;6742;48.036;15.780;2022-08-05T04:36:10;19.40;99.90
13346;DHT22;6742;48.036;15.780;2022-08-05T04:38:38;19.40;99.90
13346;DHT22;6742;48.036;15.780;2022-08-05T04:41:05;19.50;99.90
13346;DHT22;6742;48.036;15.780;2022-08-05T04:43:33;19.50;99.90
13346;DHT22;6742;48.036;15.780;2022-08-05T04:46:00;19.50;99.90
13346;DHT22;6742;48.036;15.780;2022-08-05T04:48:32;19.60;99.90
13346;DHT22;6742;48.036;15.780;2022-08-05T04:50:59;19.70;99.90
13346;DHT22;6742;48.036;15.780;2022-08-05T04:53:26;19.70;99.90
13346;DHT22;6742;48.036;15.780;2022-08-05T04:55:53;19.70;99.90
13346;DHT22;6742;48.036;15.780;2022-08-05T04:58:20;19.80;99.90
13346;DHT22;6742;48.036;15.780;2022-08-05T05:00:49;19.70;99.90
13346;DHT22;6742;48.036;15.780;2022-08-05T05:03:15;19.80;99.90
13346;DHT22;6742;48.036;15.780;2022-08-05T05:05:42;19.80;99.90
13346;DHT22;6742;48.036;15.780;2022-08-05T05:08:10;20.00;99.90
13346;DHT22;6742;48.036;15.780;2022-08-05T05:10:40;20.20;99.90
13346;DHT22;6742;48.036;15.780;2022-08-05T05:13:10;20.70;99.90
13346;DHT22;6742;48.036;15.780;2022-08-05T05:15:38;21.40;99.90
13346;DHT22;6742;48.036;15.780;2022-08-05T05:18:06;22.00;99.90
13346;DHT22;6742;48.036;15.780;2022-08-05T05:20:34;22.50;99.90
13346;DHT22;6742;48.036;15.780;2022-08-05T05:23:04;22.90;99.90
13346;DHT22;6742;48.036;15.780;2022-08-05T05:25:31;23.30;99.90
13346;DHT22;6742;48.036;15.780;2022-08-05T05:27:58;23.70;99.90
13346;DHT22;6742;48.036;15.780;2022-08-05T05:30:25;24.20;99.90
13346;DHT22;6742;48.036;15.780;2022-08-05T05:32:52;24.60;99.90
13346;DHT22;6742;48.036;15.780;2022-08-05T05:35:21;25.00;98.50
13346;DHT22;6742;48.036;15.780;2022-08-05T05:37:48;25.50;98.50
13346;DHT22;6742;48.036;15.780;2022-08-05T05:40:16;25.80;98.00
13346;DHT22;6742;48.036;15.780;2022-08-05T05:42:43;26.00;97.50
13346;DHT22;6742;48.036;15.780;2022-08-05T05:45:10;26.20;97.20
13346;DHT22;6742;48.036;15.780;2022-08-05T05:47:37;26.40;97.00
13346;DHT22;6742;48.036;15.780;2022-08-05T05:50:06;26.60;96.30
13346;DHT22;6742;48.036;15.780;2022-08-05T05:52:35;26.70;95.70
13346;DHT22;6742;48.036;15.780;2022-08-05T05:55:03;26.90;95.80
13346;DHT22;6742;48.036;15.780;2022-08-05T05:57:30;27.10;95.80
13346;DHT22;6742;48.036;15.780;2022-08-05T06:00:01;27.40;95.50
13346;DHT22;6742;48.036;15.780;2022-08-05T06:02:28;27.50;95.50
13346;DHT22;6742;48.036;15.780;2022-08-05T06:04:55;27.60;95.20
13346;DHT22;6742;48.036;15.780;2022-08-05T06:07:21;27.80;95.30
13346;DHT22;6742;48.036;15.780;2022-08-05T06:09:50;27.90;95.10
13346;DHT22;6742;48.036;15.780;2022-08-05T06:12:17;28.20;95.10
13346;DHT22;6742;48.036;15.780;2022-08-05T06:14:44;28.40;94.60
13346;DHT22;6742;48.036;15.780;2022-08-05T06:17:11;28.60;94.40
13346;DHT22;6742;48.036;15.780;2022-08-05T06:19:43;28.60;94.20
13346;DHT22;6742;48.036;15.780;2022-08-05T06:22:10;28.80;93.60
13346;DHT22;6742;48.036;15.780;2022-08-05T06:24:41;28.80;93.70
13346;DHT22;6742;48.036;15.780;2022-08-05T06:27:12;28.90;93.90
13346;DHT22;6742;48.036;15.780;2022-08-05T06:29:39;28.90;93.90
13346;DHT22;6742;48.036;15.780;2022-08-05T06:32:06;29.10;93.20
13346;DHT22;6742;48.036;15.780;2022-08-05T06:34:36;29.30;93.10
13346;DHT22;6742;48.036;15.780;2022-08-05T06:37:03;29.40;92.70
13346;DHT22;6742;48.036;15.780;2022-08-05T06:39:30;29.40;91.90
13346;DHT22;6742;48.036;15.780;2022-08-05T06:41:58;29.50;92.70
13346;DHT22;6742;48.036;15.780;2022-08-05T06:44:27;29.70;92.00
13346;DHT22;6742;48.036;15.780;2022-08-05T06:46:55;29.80;91.70
13346;DHT22;6742;48.036;15.780;2022-08-05T06:49:23;30.00;91.70
13346;DHT22;6742;48.036;15.780;2022-08-05T06:51:51;30.30;91.80
13346;DHT22;6742;48.036;15.780;2022-08-05T06:54:18;30.50;92.30
13346;DHT22;6742;48.036;15.780;2022-08-05T06:56:44;30.60;92.40
13346;DHT22;6742;48.036;15.780;2022-08-05T06:59:11;30.70;91.20
13346;DHT22;6742;48.036;15.780;2022-08-05T07:01:41;30.90;91.70
13346;DHT22;6742;48.036;15.780;2022-08-05T07:04:08;31.00;91.20
13346;DHT22;6742;48.036;15.780;2022-08-05T07:06:35;31.20;91.60
13346;DHT22;6742;48.036;15.780;2022-08-05T07:09:03;31.30;90.70
13346;DHT22;6742;48.036;15.780;2022-08-05T07:11:30;31.40;90.70
13346;DHT22;6742;48.036;15.780;2022-08-05T07:13:57;31.60;90.70
13346;DHT22;6742;48.036;15.780;2022-08-05T07:16:43;31.90;90.60
13346;DHT22;6742;48.036;15.780;2022-08-05T07:19:16;32.10;89.70
13346;DHT22;6742;48.036;15.780;2022-08-05T07:21:44;32.30;89.80
13346;DHT22;6742;48.036;15.780;2022-08-05T07:24:11;32.40;90.00
13346;DHT22;6742;48.036;15.780;2022-08-05T07:26:41;32.40;90.10
13346;DHT22;6742;48.036;15.780;2022-08-05T07:29:08;32.30;88.90
13346;DHT22;6742;48.036;15.780;2022-08-05T07:31:35;32.50;90.30
13346;DHT22;6742;48.036;15.780;2022-08-05T07:34:04;32.60;89.40
13346;DHT22;6742;48.036;15.780;2022-08-05T07:36:31;32.90;87.80
13346;DHT22;6742;48.036;15.780;2022-08-05T07:39:06;33.20;88.10
13346;DHT22;6742;48.036;15.780;2022-08-05T07:41:34;33.40;87.50
13346;DHT22;6742;48.036;15.780;2022-08-05T07:44:02;33.60;87.40
13346;DHT22;6742;48.036;15.780;2022-08-05T07:49:06;33.90;85.70
13346;DHT22;6742;48.036;15.780;2022-08-05T07:51:34;34.00;85.90
13346;DHT22;6742;48.036;15.780;2022-08-05T07:54:01;34.20;85.10
13346;DHT22;6742;48.036;15.780;2022-08-05T07:56:28;34.30;84.50
13346;DHT22;6742;48.036;15.780;2022-08-05T07:58:55;34.50;84.90
13346;DHT22;6742;48.036;15.780;2022-08-05T08:01:22;34.70;84.30
13346;DHT22;6742;48.036;15.780;2022-08-05T08:03:51;34.80;82.70
13346;DHT22;6742;48.036;15.780;2022-08-05T08:06:19;34.90;82.50
13346;DHT22;6742;48.036;15.780;2022-08-05T08:08:46;35.00;82.30
13346;DHT22;6742;48.036;15.780;2022-08-05T08:11:13;35.10;82.90
13346;DHT22;6742;48.036;15.780;2022-08-05T08:13:40;35.20;80.90
13346;DHT22;6742;48.036;15.780;2022-08-05T08:16:07;35.30;81.10
13346;DHT22;6742;48.036;15.780;2022-08-05T08:18:34;35.30;81.10
13346;DHT22;6742;48.036;15.780;2022-08-05T08:21:01;35.40;81.20
13346;DHT22;6742;48.036;15.780;2022-08-05T08:23:30;35.50;81.70
13346;DHT22;6742;48.036;15.780;2022-08-05T08:26:00;35.50;80.90
13346;DHT22;6742;48.036;15.780;2022-08-05T08:28:27;35.70;81.20
13346;DHT22;6742;48.036;15.780;2022-08-05T08:30:54;35.80;80.80
13346;DHT22;6742;48.036;15.780;2022-08-05T08:33:21;36.00;79.60
13346;DHT22;6742;48.036;15.780;2022-08-05T08:35:48;36.10;78.50
13346;DHT22;6742;48.036;15.780;2022-08-05T08:38:14;36.20;80.30
13346;DHT22;6742;48.036;15.780;2022-08-05T08:40:43;36.30;81.10
13346;DHT22;6742;48.036;15.780;2022-08-05T08:43:11;36.30;79.70
13346;DHT22;6742;48.036;15.780;2022-08-05T08:48:11;36.50;79.60
13346;DHT22;6742;48.036;15.780;2022-08-05T08:55:42;36.60;78.50
13346;DHT22;6742;48.036;15.780;2022-08-05T08:58:10;36.60;80.90
13346;DHT22;6742;48.036;15.780;2022-08-05T09:00:39;36.70;78.40
13346;DHT22;6742;48.036;15.780;2022-08-05T09:03:06;36.80;79.30
13346;DHT22;6742;48.036;15.780;2022-08-05T09:05:33;36.90;78.80
13346;DHT22;6742;48.036;15.780;2022-08-05T09:08:00;36.90;78.50
13346;DHT22;6742;48.036;15.780;2022-08-05T09:10:28;37.00;78.60
13346;DHT22;6742;48.036;15.780;2022-08-05T09:15:28;37.30;79.40
13346;DHT22;6742;48.036;15.780;2022-08-05T09:20:30;37.30;79.50
13346;DHT22;6742;48.036;15.780;2022-08-05T14:04:56;33.50;70.90
13346;DHT22;6742;48.036;15.780;2022-08-05T14:07:41;33.50;72.10
13346;DHT22;6742;48.036;15.780;2022-08-05T14:10:10;33.50;69.50
13346;DHT22;6742;48.036;15.780;2022-08-05T14:12:37;33.40;69.50
13346;DHT22;6742;48.036;15.780;2022-08-05T14:20:11;33.30;71.90
13346;DHT22;6742;48.036;15.780;2022-08-05T14:22:39;33.30;71.90
13346;DHT22;6742;48.036;15.780;2022-08-05T14:25:08;33.20;72.70
13346;DHT22;6742;48.036;15.780;2022-08-05T14:27:35;33.00;72.90
13346;DHT22;6742;48.036;15.780;2022-08-05T14:30:03;32.90;70.50
13346;DHT22;6742;48.036;15.780;2022-08-05T14:35:03;32.90;72.90
13346;DHT22;6742;48.036;15.780;2022-08-05T14:37:32;32.80;72.50
13346;DHT22;6742;48.036;15.780;2022-08-05T14:39:59;32.70;73.50
13346;DHT22;6742;48.036;15.780;2022-08-05T14:42:25;32.70;73.40
13346;DHT22;6742;48.036;15.780;2022-08-05T14:44:53;32.70;74.80
13346;DHT22;6742;48.036;15.780;2022-08-05T14:47:20;32.60;72.60
13346;DHT22;6742;48.036;15.780;2022-08-05T14:49:47;32.60;72.60
13346;DHT22;6742;48.036;15.780;2022-08-05T14:52:14;32.60;70.90
13346;DHT22;6742;48.036;15.780;2022-08-05T14:54:42;32.60;72.10
13346;DHT22;6742;48.036;15.780;2022-08-05T14:57:09;32.60;74.00
13346;DHT22;6742;48.036;15.780;2022-08-05T14:59:36;32.50;73.30
13346;DHT22;6742;48.036;15.780;2022-08-05T15:02:04;32.50;72.20
13346;DHT22;6742;48.036;15.780;2022-08-05T15:04:31;32.50;71.10
13346;DHT22;6742;48.036;15.780;2022-08-05T15:06:57;32.60;73.20
13346;DHT22;6742;48.036;15.780;2022-08-05T15:09:24;32.50;74.00
13346;DHT22;6742;48.036;15.780;2022-08-05T15:11:53;32.40;75.60
13346;DHT22;6742;48.036;15.780;2022-08-05T15:14:21;32.40;72.10
13346;DHT22;6742;48.036;15.780;2022-08-05T15:16:48;32.20;73.10
13346;DHT22;6742;48.036;15.780;2022-08-05T15:19:15;32.10;75.50
13346;DHT22;6742;48.036;15.780;2022-08-05T15:21:42;32.10;75.10
13346;DHT22;6742;48.036;15.780;2022-08-05T15:24:09;32.00;74.00
13346;DHT22;6742;48.036;15.780;2022-08-05T15:26:36;32.00;73.80
13346;DHT22;6742;48.036;15.780;2022-08-05T15:29:04;32.00;74.90
13346;DHT22;6742;48.036;15.780;2022-08-05T15:31:31;31.90;75.90
13346;DHT22;6742;48.036;15.780;2022-08-05T15:34:04;31.90;75.40
13346;DHT22;6742;48.036;15.780;2022-08-05T15:36:31;31.90;74.20
13346;DHT22;6742;48.036;15.780;2022-08-05T15:38:57;31.90;77.10
13346;DHT22;6742;48.036;15.780;2022-08-05T15:41:24;31.90;74.70
13346;DHT22;6742;48.036;15.780;2022-08-05T15:43:52;31.90;78.40
13346;DHT22;6742;48.036;15.780;2022-08-05T15:46:20;31.90;77.60
13346;DHT22;6742;48.036;15.780;2022-08-05T15:48:48;31.90;77.30
13346;DHT22;6742;48.036;15.780;2022-08-05T15:51:15;31.70;77.10
13346;DHT22;6742;48.036;15.780;2022-08-05T15:53:47;31.70;77.60
13346;DHT22;6742;48.036;15.780;2022-08-05T15:56:16;31.70;78.50
13346;DHT22;6742;48.036;15.780;2022-08-05T15:58:43;31.70;80.00
13346;DHT22;6742;48.036;15.780;2022-08-05T16:01:10;31.70;82.20
13346;DHT22;6742;48.036;15.780;2022-08-05T16:03:40;31.70;83.80
13346;DHT22;6742;48.036;15.780;2022-08-05T16:06:08;31.70;85.00
13346;DHT22;6742;48.036;15.780;2022-08-05T16:08:40;31.60;84.70
13346;DHT22;6742;48.036;15.780;2022-08-05T16:11:08;31.60;85.90
13346;DHT22;6742;48.036;15.780;2022-08-05T16:13:35;31.50;87.20
13346;DHT22;6742;48.036;15.780;2022-08-05T16:16:03;31.50;87.70
13346;DHT22;6742;48.036;15.780;2022-08-05T16:18:30;31.40;85.70
13346;DHT22;6742;48.036;15.780;2022-08-05T16:20:59;31.40;87.40
13346;DHT22;6742;48.036;15.780;2022-08-05T16:23:27;31.30;87.60
13346;DHT22;6742;48.036;15.780;2022-08-05T16:26:03;31.20;87.50
13346;DHT22;6742;48.036;15.780;2022-08-05T16:28:30;31.30;88.20
13346;DHT22;6742;48.036;15.780;2022-08-05T16:30:57;31.20;88.50
13346;DHT22;6742;48.036;15.780;2022-08-05T16:33:24;31.10;89.10
13346;DHT22;6742;48.036;15.780;2022-08-05T16:35:53;31.20;90.00
13346;DHT22;6742;48.036;15.780;2022-08-05T16:38:21;31.10;90.80
13346;DHT22;6742;48.036;15.780;2022-08-05T16:40:48;31.10;91.60
13346;DHT22;6742;48.036;15.780;2022-08-05T16:43:15;31.10;92.20
13346;DHT22;6742;48.036;15.780;2022-08-05T16:45:42;31.00;92.10
13346;DHT22;6742;48.036;15.780;2022-08-05T16:48:12;31.10;92.30
13346;DHT22;6742;48.036;15.780;2022-08-05T16:50:39;31.00;92.00
13346;DHT22;6742;48.036;15.780;2022-08-05T16:53:06;30.90;91.80
13346;DHT22;6742;48.036;15.780;2022-08-05T16:55:34;30.90;91.70
13346;DHT22;6742;48.036;15.780;2022-08-05T16:58:01;30.80;91.90
13346;DHT22;6742;48.036;15.780;2022-08-05T17:00:28;30.70;91.80
13346;DHT22;6742;48.036;15.780;2022-08-05T17:02:55;30.70;91.60
13346;DHT22;6742;48.036;15.780;2022-08-05T17:05:22;30.60;91.30
13346;DHT22;6742;48.036;15.780;2022-08-05T17:07:49;30.60;91.20
13346;DHT22;6742;48.036;15.780;2022-08-05T17:10:16;30.60;91.30
13346;DHT22;6742;48.036;15.780;2022-08-05T17:12:44;30.50;91.40
13346;DHT22;6742;48.036;15.780;2022-08-05T17:15:11;30.50;91.80
13346;DHT22;6742;48.036;15.780;2022-08-05T17:17:38;30.50;92.50
13346;DHT22;6742;48.036;15.780;2022-08-05T17:20:08;30.40;92.60
13346;DHT22;6742;48.036;15.780;2022-08-05T17:22:35;30.30;93.70
13346;DHT22;6742;48.036;15.780;2022-08-05T17:25:03;30.20;94.40
13346;DHT22;6742;48.036;15.780;2022-08-05T17:27:30;30.10;94.40
13346;DHT22;6742;48.036;15.780;2022-08-05T17:30:03;30.00;94.70
13346;DHT22;6742;48.036;15.780;2022-08-05T17:32:33;29.90;94.20
13346;DHT22;6742;48.036;15.780;2022-08-05T17:35:00;29.80;94.30
13346;DHT22;6742;48.036;15.780;2022-08-05T17:37:27;29.70;94.20
13346;DHT22;6742;48.036;15.780;2022-08-05T17:39:54;29.70;94.00
13346;DHT22;6742;48.036;15.780;2022-08-05T17:42:21;29.70;94.20
13346;DHT22;6742;48.036;15.780;2022-08-05T17:44:48;29.70;94.10
13346;DHT22;6742;48.036;15.780;2022-08-05T17:47:17;29.60;94.20
13346;DHT22;6742;48.036;15.780;2022-08-05T17:49:44;29.60;94.30
13346;DHT22;6742;48.036;15.780;2022-08-05T17:52:11;29.50;94.50
13346;DHT22;6742;48.036;15.780;2022-08-05T17:54:37;29.40;94.60
13346;DHT22;6742;48.036;15.780;2022-08-05T17:57:05;29.30;94.90
13346;DHT22;6742;48.036;15.780;2022-08-05T17:59:32;29.30;94.50
13346;DHT22;6742;48.036;15.780;2022-08-05T18:01:59;29.20;94.70
13346;DHT22;6742;48.036;15.780;2022-08-05T18:04:28;29.20;94.70
13346;DHT22;6742;48.036;15.780;2022-08-05T18:06:55;29.10;95.20
13346;DHT22;6742;48.036;15.780;2022-08-05T18:09:22;29.10;94.90
13346;DHT22;6742;48.036;15.780;2022-08-05T18:11:49;29.10;95.00
13346;DHT22;6742;48.036;15.780;2022-08-05T18:14:16;29.00;95.20
13346;DHT22;6742;48.036;15.780;2022-08-05T18:16:43;28.90;95.20
13346;DHT22;6742;48.036;15.780;2022-08-05T18:19:10;28.80;95.20
13346;DHT22;6742;48.036;15.780;2022-08-05T18:21:38;28.80;95.20
13346;DHT22;6742;48.036;15.780;2022-08-05T18:24:06;28.70;95.30
13346;DHT22;6742;48.036;15.780;2022-08-05T18:26:33;28.60;95.40
13346;DHT22;6742;48.036;15.780;2022-08-05T18:29:00;28.60;95.60
13346;DHT22;6742;48.036;15.780;2022-08-05T18:31:28;28.50;95.60
13346;DHT22;6742;48.036;15.780;2022-08-05T18:33:55;28.50;95.90
13346;DHT22;6742;48.036;15.780;2022-08-05T18:36:22;28.50;95.90
13346;DHT22;6742;48.036;15.780;2022-08-05T18:38:53;28.40;95.90
13346;DHT22;6742;48.036;15.780;2022-08-05T18:41:28;28.40;95.90
13346;DHT22;6742;48.036;15.780;2022-08-05T18:43:55;28.30;96.00
13346;DHT22;6742;48.036;15.780;2022-08-05T18:46:26;28.30;96.00
13346;DHT22;6742;48.036;15.780;2022-08-05T18:48:53;28.30;96.10
13346;DHT22;6742;48.036;15.780;2022-08-05T18:51:21;28.20;96.00
13346;DHT22;6742;48.036;15.780;2022-08-05T18:54:07;28.20;96.10
13346;DHT22;6742;48.036;15.780;2022-08-05T18:56:35;28.10;95.90
13346;DHT22;6742;48.036;15.780;2022-08-05T18:59:02;28.00;96.30
13346;DHT22;6742;48.036;15.780;2022-08-05T19:01:29;27.90;96.40
13346;DHT22;6742;48.036;15.780;2022-08-05T19:03:56;27.80;96.60
13346;DHT22;6742;48.036;15.780;2022-08-05T19:06:23;27.70;96.60
13346;DHT22;6742;48.036;15.780;2022-08-05T19:08:50;27.70;96.90
13346;DHT22;6742;48.036;15.780;2022-08-05T19:11:22;27.60;97.00
13346;DHT22;6742;48.036;15.780;2022-08-05T19:13:49;27.60;97.20
13346;DHT22;6742;48.036;15.780;2022-08-05T19:16:16;27.50;97.20
13346;DHT22;6742;48.036;15.780;2022-08-05T19:18:43;27.50;97.30
13346;DHT22;6742;48.036;15.780;2022-08-05T19:21:10;27.50;97.40
13346;DHT22;6742;48.036;15.780;2022-08-05T19:23:37;27.50;97.40
13346;DHT22;6742;48.036;15.780;2022-08-05T19:26:04;27.40;97.50
13346;DHT22;6742;48.036;15.780;2022-08-05T19:28:33;27.40;97.40
13346;DHT22;6742;48.036;15.780;2022-08-05T19:31:00;27.40;97.70
13346;DHT22;6742;48.036;15.780;2022-08-05T19:33:27;27.40;97.50
13346;DHT22;6742;48.036;15.780;2022-08-05T19:35:54;27.30;97.80
13346;DHT22;6742;48.036;15.780;2022-08-05T19:38:21;27.20;97.90
13346;DHT22;6742;48.036;15.780;2022-08-05T19:40:48;27.10;98.00
13346;DHT22;6742;48.036;15.780;2022-08-05T19:43:15;27.00;98.10
13346;DHT22;6742;48.036;15.780;2022-08-05T19:45:43;26.90;98.40
13346;DHT22;6742;48.036;15.780;2022-08-05T19:48:10;26.90;98.70
13346;DHT22;6742;48.036;15.780;2022-08-05T19:50:37;26.80;98.80
13346;DHT22;6742;48.036;15.780;2022-08-05T19:53:04;26.70;98.80
13346;DHT22;6742;48.036;15.780;2022-08-05T19:55:31;26.70;98.80
13346;DHT22;6742;48.036;15.780;2022-08-05T19:57:58;26.70;98.90
13346;DHT22;6742;48.036;15.780;2022-08-05T20:00:25;26.70;98.90
13346;DHT22;6742;48.036;15.780;2022-08-05T20:02:54;26.60;99.10
13346;DHT22;6742;48.036;15.780;2022-08-05T20:05:22;26.60;99.00
13346;DHT22;6742;48.036;15.780;2022-08-05T20:07:51;26.50;99.30
13346;DHT22;6742;48.036;15.780;2022-08-05T20:10:18;26.40;99.30
13346;DHT22;6742;48.036;15.780;2022-08-05T20:12:46;26.40;99.40
13346;DHT22;6742;48.036;15.780;2022-08-05T20:15:13;26.30;99.60
13346;DHT22;6742;48.036;15.780;2022-08-05T20:17:41;26.20;99.80
13346;DHT22;6742;48.036;15.780;2022-08-05T20:20:10;26.20;99.80
13346;DHT22;6742;48.036;15.780;2022-08-05T20:22:38;26.20;99.90
13346;DHT22;6742;48.036;15.780;2022-08-05T20:25:06;26.20;99.90
13346;DHT22;6742;48.036;15.780;2022-08-05T20:27:33;26.20;99.90
13346;DHT22;6742;48.036;15.780;2022-08-05T20:30:00;26.10;99.90
13346;DHT22;6742;48.036;15.780;2022-08-05T20:32:27;26.10;99.90
13346;DHT22;6742;48.036;15.780;2022-08-05T20:34:54;26.20;99.90
13346;DHT22;6742;48.036;15.780;2022-08-05T20:37:23;26.10;99.90
13346;DHT22;6742;48.036;15.780;2022-08-05T20:39:50;26.10;99.80
13346;DHT22;6742;48.036;15.780;2022-08-05T20:42:17;26.10;99.90
13346;DHT22;6742;48.036;15.780;2022-08-05T20:44:47;26.00;99.90
13346;DHT22;6742;48.036;15.780;2022-08-05T20:47:14;26.00;99.90
13346;DHT22;6742;48.036;15.780;2022-08-05T20:49:44;26.00;99.90
13346;DHT22;6742;48.036;15.780;2022-08-05T20:52:11;26.00;99.90
13346;DHT22;6742;48.036;15.780;2022-08-05T20:54:41;26.00;99.90
13346;DHT22;6742;48.036;15.780;2022-08-05T20:57:11;25.90;99.90
13346;DHT22;6742;48.036;15.780;2022-08-05T20:59:38;25.90;99.90
13346;DHT22;6742;48.036;15.780;2022-08-05T21:02:05;25.80;99.90